This site, now in its 15th season, is a labour of love and fun from one of Ottawa's most avid time trialists and number crunchers. It adheres to and is permitted by the laws of Canada, promotes the objectives of every bicycle club whose results are shown, and is donated free of charge by myself for your enjoyment and usage. If you would like results from series you ride in to be shown here, give me (celia@drmath.ca) a shout!


Index Page
ATT OTT WTT AATT CFCTT VVVTT
Help resultformat:
Case-sensitive

OBC Open TT Series - 2009-Jul-02 - 15km (Rockliffe Pkwy) (EvtFactor = 0.9513)

Weather (18:00): Light Rainshower. Temp.: 19C, Humidity: 92%, Dew Point: 18C, Wind: E 11km/h, Pressure: 100.7kPa, Vis: 11km, Humidex: *.
Weather (19:00): Cloudy. Temp.: 19C, Humidity: 93%, Dew Point: 18C, Wind: 0km/h, Pressure: 100.7kPa, Vis: 24km, Humidex: *.
Weather (20:00): Cloudy. Temp.: 19C, Humidity: 89%, Dew Point: 18C, Wind: NE 5km/h, Pressure: 100.7kPa, Vis: 24km, Humidex: *.

Send photos with description (when/where/what) of yourself on or off of bike to celia@drmath.ca

These results were first posted on the OBC site circa 08:00 on 2009-Jul-03 and are available here for your added pleasure and analysis.

Another evening with light rain and virtually no wind, and there were some great times. Sue Schlatter was third overall in another personal best - now just 7 seconds off of the women's course record! It's too bad that we'll have to wait until mid-August for another attempt at bettering this. Some excellent category performances were achieved as well. Sue currently holds the top 16 Veteran B Female times, while Audrey Bernard has the top six Femal Cadet times. Felix Couturier-Lamy, who has improved each time out, set the best Minime Male time yet this season, and he is moving up quickly in the all-time MIM rankings. In all, half of those who had ridden an earlier 2009 OTT 15km, improved upon their previous season-series best, while 22 of 72 improved upon their previous 15km database best.

 
 

BESTS?
 
1 van den Ham, Douglas  OBC/EMD 19:33 46.036 1/72 VAM 1/12 0.9923
2 Datars, Paul  OBC/RWR 20:04 44.850 2/72 VCM 1/13 0.9389
Y 3 Schlatter, Sue  EMD 20:13 44.518 3/72 VBF 1/12 1.0149
4 Sudac, Rick  OBC/RWR 20:26 44.046 4/72 VDM 1/9 0.9495
5 Ferguson, James OBC 20:30 43.902 5/72 VBM 1/12 1.0470
6 Olson, Chris EMD 20:31 43.867 6/72 VBM 2/12 1.0321
7 Munden, David EMD 20:46 43.339 7/72 VAM 2/12 0.9690
8 Budgell, Glen  OBC 21:08 42.587 8/72 VCM 2/13 1.0238
9 Ferguson, Scott OBC 21:09 42.553 9/72 VBM 3/12 1.2665
10 Lefebvre, Jean-Pierre OBC 21:11 42.486 10/72 VAM 3/12 0.9976
11 Gerrard, David  OBC 21:14 42.386 11/72 VBM 4/12 1.0382
Tregunno, Peter  OBC 21:14 42.386 11/72 VAM 4/12 0.9977
13 Cameron, Allen  OBC/RWR 21:19 42.220 13/72 VCM 3/13 1.0023
Campbell, Colin  OBC 21:19 42.220 13/72 VBM 5/12 0.9493
Lapointe, Marc EMD 21:19 42.220 13/72 VAM 5/12 1.0356
16 Morvan, Jacques  OBC 21:34 41.731 16/72 VDM 2/9 0.9342
17 Brazeau, Marc OBC 21:37 41.635 17/72 VAM 6/12  
18 Wright, Sean CYC 21:40 41.538 18/72 VBM 6/12 0.9367
19 Corner, Doug  OBC 21:44 41.411 19/72 VCM 4/13  
20 Sargent, Larry OBC 21:48 41.284 20/72 VCM 5/13 1.0046
21 McKay, Allison  OBC/RDO 21:49 41.253 21/72 VBF 2/12 0.9750
22 Moerman, Bram  OBC 21:59 40.940 22/72 VDM 3/9 0.9663
23 Konov, Sergei OBC 22:08 40.663 23/72 VAM 7/12 0.9955
24 Michel, Alexandre  WQW 22:10 40.602 24/72 VAM 8/12 1.0622
25 Hess, Detlef OBC 22:16 40.419 25/72 VCM 6/13 1.0807
26 Reissner, Leslie OBC 22:42 39.648 26/72 VCM 7/13 1.0470
27 DeVidi, Robert  OBC 22:44 39.589 27/72 VBM 7/12 0.9955
28 Weiser, Paul OBC 22:45 39.560 28/72 VDM 4/9 0.9890
29 Phillips, Ron OBC 22:47 39.503 29/72 VDM 5/9 1.1617
30 Dorego, Jean-Louis OBC 22:58 39.187 30/72 VCM 8/13 1.0087
31 D'Aoust, Sylvie  CYF 23:01 39.102 31/72 VAF 1/5 1.2060
32 Coney, Michael OBC 23:05 38.989 32/72 VDM 6/9 1.0373
Trafford, Brian OBC 23:05 38.989 32/72 JUM 1/1 1.0329
34 Burdett, Avery  OBC 23:08 38.905 34/72 VEM 1/1 0.8978
35 Blagdon, Wendy  CYC 23:09 38.877 35/72 VBF 3/12 0.9850
36 Langevin, Roger  OBC 23:10 38.849 36/72 VAM 9/12 0.9638
37 Deavy, Carol  OBC 23:31 38.271 37/72 VBF 4/12 1.0042
38 Braekevelt, Eric OBC 23:45 37.895 38/72 VAM 10/12 1.0406
39 Cheney, Paul OBC 23:46 37.868 39/72 VDM 7/9 0.9443
40 Leslie, Brian OBC 23:47 37.842 40/72 VAM 11/12 1.0470
Y 41 Bernard, Audrey --- 23:48 37.815 41/72 CAF 1/2 1.0362
Provencher, Mélanie RDO 23:48 37.815 41/72 VAF 2/5  
43 Blais, Bob OBC 23:56 37.604 43/72 VCM 9/13 0.9792
Burge, Larry  OBC 23:56 37.604 43/72 VBM 8/12 0.9406
45 Janusauskas, Vytas  OBC 24:10 37.241 45/72 VCM 10/13 1.0526
46 Simard, Martin OBC 24:11 37.216 46/72 VCM 11/13 1.0505
47 McKay, Andrea  OBC 24:18 37.037 47/72 VBF 5/12 1.0124
Stec, Artur OBC 24:18 37.037 47/72 VBM 9/12 0.8628
49 Stec, Robin OBC 24:20 36.986 49/72 CAM 1/1  
50 Austen, Ian  OBC 24:24 36.885 50/72 VCM 12/13 1.0907
51 Ingham, Alison  OBC/RWR 24:29 36.760 51/72 VBF 6/12 0.9400
52 Hutchins, Jim OBC 24:35 36.610 52/72 VBM 10/12 1.1205
53 Couturier-Lamy, Felix OBC 24:40 36.486 53/72 MIM 1/2 1.0060
54 Yaeger, Dave  OBC 24:52 36.193 54/72 VCM 13/13 0.8823
55 Pelletier, Luc OBC 24:54 36.145 55/72 VAM 12/12 1.0203
56 Datars, Sally OBC 25:10 35.762 56/72 VBF 7/12 0.9570
57 McInnis, Celia  OBC/ABC 25:14 35.667 57/72 VCF 1/1 0.9190
58 Plouffe, Yves OBC 25:19 35.550 58/72 VBM 11/12 0.9668
59 Humphreys, Les  OBC/ABC 25:22 35.480 59/72 VDM 8/9 0.8242
60 Jones, Amanda OBC/CYF 25:27 35.363 60/72 VAF 3/5 1.0257
McAuslan, Dave  OBC/ABC 25:27 35.363 60/72 VDM 9/9  
62 Levi, Cheryl OBC 25:28 35.340 62/72 VBF 8/12 0.9198
63 Rees, Stephanie  OBC 25:43 34.997 63/72 VAF 4/5 1.0216
64 Nesdoly, Nina  OBC 25:59 34.638 64/72 CAF 2/2 1.2875
65 van Zandvoort, Mike --- 26:01 34.593 65/72 SEM 1/1 0.8873
66 McLaren, Louise  OBC 26:10 34.395 66/72 VBF 9/12 0.9660
67 Meyer, Lisa  OBC 26:14 34.307 67/72 VBF 10/12  
68 Trepanier, Julie OBC 26:57 33.395 68/72 VBF 11/12  
69 Rancourt, Jerome OBC 27:00 33.333 69/72 MIM 2/2  
70 Morris, Susan OBC 27:12 33.088 70/72 VBF 12/12  
71 Johnson, Laura  OBC/CYF 29:13 30.804 71/72 VAF 5/5 0.9644
72 Grace, Darrin  --- DNF   72/72 VBM 12/12  
 
Average Speed of all of the above 71 finishes (1065km in 27:40:39):38.479
>>>Average of the Average Speeds for these 71 finishes38.756<<<
 

The number of data records shown above is 72
The server processing of your query took: 0 wallclock secs ( 0.15 usr + 0.01 sys = 0.16 CPU)

Thanks to our Helpers: John Bernard, Gunter Hauschildt, Colleen Janusauskas, Alex McKnight, Monique Mnard, Lisa Payne, Peter Tregunno, Geoffrey Wright.

     


Apr 10 (Good Friday)
May 5 (10km) May 7 May 12 (10km) May 14 May 19 May 19 (10km) May 21 May 26 May 26 (10km) May 28 May 31 (40km)
Jun 2 Jun 2 Jun 4 Jun 9 Jun 9 Jun 11 Jun 16 Jun 16 Jun 18 Jun 23 Jun 23 Jun 25 Jun 30 Jun 30
  Jul 2  
Jul 5 (40km) Jul 7 Jul 7 (10km) Jul 9 (10km) Jul 12 (40km) Jul 14 Jul 14 (10km) Jul 16 (10km) Jul 21 Jul 21 (10km) Jul 23 Jul 23 (10km) Jul 28 Jul 28 (10km) Jul 30 (10km)
Aug 4 (cancelled - thunder storm) Aug 4 (10km) (cancelled - thunder storm) Aug 6 (10km) Aug 9 (40km) Aug 11 Aug 11 (10km) Aug 13 (10km) Aug 18 Aug 18 (10km) Aug 20 (10km) (cancelled - construction) Aug 25 Aug 25 (Invitational) Aug 27
Sep 1 Sep 3 Sep 8 Sep 10 Sep 13 (40km) Sep 15 Sep 22 Sep 29

OTT Rankings
Best       Best by category
WTT Rankings for OBC Members
4 Best Speeds     4 Best Speeds by category
OBC Member Best Three 15km Rankings
Overall     by category     age-Hcap Female   age-Hcap Male
OBC BAR Ranking
Overall     by category     Rider "Consistency-Graph"
ABC BAR Ranking
Overall     by category     Rider "Consistency-Graph"
Other years
TT Calculator All TT People All TT events
ABC Home VVV Home
CKAP GOLD MEDAL
Other Links

Note: OTT data from 2003 through 2006-Apr-14 and 2007-Apr-06-? and WTT from 2008-? is taken from the official OBC site.

Please send your comments and suggestions to: Celia McInnis
Copyright © 1998-2011 Celia McInnis. All rights reserved. Links are welcomed.